createdAt,value
2019-04-23T00:02:19.759Z,14.60
2019-04-23T00:04:47.911Z,14.60
2019-04-23T00:10:01.154Z,14.40
2019-04-23T00:12:38.069Z,14.40
2019-04-23T00:15:05.154Z,14.40
2019-04-23T00:17:38.532Z,14.30
2019-04-23T00:20:06.734Z,14.30
2019-04-23T00:22:36.974Z,14.20
2019-04-23T00:27:44.242Z,14.20
2019-04-23T00:30:14.957Z,14.20
2019-04-23T00:32:44.631Z,14.10
2019-04-23T00:35:12.562Z,14.10
2019-04-23T00:38:02.208Z,14.00
2019-04-23T00:40:10.195Z,14.00
2019-04-23T00:42:49.006Z,13.90
2019-04-23T00:45:16.799Z,13.90
2019-04-23T00:47:46.606Z,13.90
2019-04-23T00:50:22.862Z,14.00
2019-04-23T00:52:48.761Z,14.00
2019-04-23T00:55:26.164Z,13.90
2019-04-23T00:57:50.454Z,14.00
2019-04-23T01:00:29.116Z,13.90
2019-04-23T01:02:57.330Z,13.90
2019-04-23T01:05:27.658Z,13.80
2019-04-23T01:07:49.983Z,13.80
2019-04-23T01:10:29.204Z,13.80
2019-04-23T01:13:11.272Z,13.80
2019-04-23T01:15:41.183Z,13.80
2019-04-23T01:18:14.135Z,13.80
2019-04-23T01:20:43.970Z,13.80
2019-04-23T01:22:54.915Z,13.80
2019-04-23T01:25:45.137Z,13.80
2019-04-23T01:31:02.196Z,13.70
2019-04-23T01:33:40.767Z,13.70
2019-04-23T01:36:16.215Z,13.60
2019-04-23T01:38:42.259Z,13.50
2019-04-23T01:41:09.703Z,13.50
2019-04-23T01:43:38.109Z,13.50
2019-04-23T01:46:08.085Z,13.50
2019-04-23T01:48:40.548Z,13.50
2019-04-23T01:51:04.334Z,13.50
2019-04-23T01:53:41.267Z,13.50
2019-04-23T01:56:14.001Z,13.40
2019-04-23T01:58:45.124Z,13.40
2019-04-23T02:01:11.653Z,13.30
2019-04-23T02:03:46.649Z,13.30
2019-04-23T02:11:31.596Z,13.40
2019-04-23T02:13:55.364Z,13.40
2019-04-23T02:16:26.220Z,13.50
2019-04-23T02:19:12.545Z,13.40
2019-04-23T02:21:38.206Z,13.40
2019-04-23T02:24:14.473Z,13.30
2019-04-23T02:26:36.879Z,13.20
2019-04-23T02:29:15.945Z,13.20
2019-04-23T02:31:57.746Z,13.20
2019-04-23T02:34:48.770Z,12.80
2019-04-23T02:36:59.830Z,13.10
2019-04-23T02:39:26.385Z,13.10
2019-04-23T02:44:36.652Z,13.20
2019-04-23T02:47:03.429Z,13.20
2019-04-23T02:49:27.229Z,13.20
2019-04-23T02:59:28.843Z,13.20
2019-04-23T03:02:17.505Z,13.20
2019-04-23T03:04:47.751Z,13.10
2019-04-23T03:07:16.025Z,13.10
2019-04-23T03:12:18.479Z,13.10
2019-04-23T03:14:46.231Z,13.00
2019-04-23T03:17:11.167Z,13.00
2019-04-23T03:19:47.544Z,13.00
2019-04-23T03:22:25.151Z,13.00
2019-04-23T03:25:23.487Z,12.80
2019-04-23T03:27:42.085Z,12.70
2019-04-23T03:36:13.737Z,12.40
2019-04-23T03:37:55.848Z,12.40
2019-04-23T03:42:57.690Z,12.40
2019-04-23T03:45:37.176Z,12.40
2019-04-23T03:48:00.820Z,12.40
2019-04-23T03:52:57.267Z,12.40
2019-04-23T03:58:08.119Z,12.40
2019-04-23T04:00:39.741Z,12.40
2019-04-23T04:03:10.366Z,12.40
2019-04-23T04:05:49.318Z,12.50
2019-04-23T04:08:13.233Z,12.50
2019-04-23T04:10:44.735Z,12.50
2019-04-23T04:13:20.066Z,12.50
2019-04-23T04:25:49.962Z,12.50
2019-04-23T04:28:17.648Z,12.40
2019-04-23T04:33:36.505Z,12.30
2019-04-23T04:36:12.699Z,12.40
2019-04-23T04:38:36.513Z,12.40
2019-04-23T04:43:32.142Z,12.50
2019-04-23T04:48:33.311Z,12.40
2019-04-23T04:53:47.800Z,12.30
2019-04-23T04:56:14.484Z,12.40
2019-04-23T04:58:40.738Z,12.40
2019-04-23T05:01:10.015Z,12.40
2019-04-23T05:03:29.586Z,12.50
2019-04-23T05:08:38.311Z,12.50
2019-04-23T05:11:23.310Z,12.60
2019-04-23T05:16:12.434Z,12.70
2019-04-23T05:21:12.233Z,12.90
2019-04-23T05:26:17.789Z,13.00
2019-04-23T05:31:21.123Z,13.10
2019-04-23T05:33:46.488Z,13.20
2019-04-23T05:36:34.351Z,13.10
2019-04-23T05:39:07.685Z,13.20
2019-04-23T05:41:22.153Z,13.20
2019-04-23T05:43:55.799Z,13.20
2019-04-23T05:46:28.708Z,13.20
2019-04-23T05:48:52.609Z,13.30
2019-04-23T05:51:31.190Z,13.40
2019-04-23T05:53:51.273Z,13.50
2019-04-23T05:56:27.468Z,13.40
2019-04-23T05:59:04.183Z,13.50
2019-04-23T06:01:49.866Z,13.60
2019-04-23T06:04:17.639Z,13.70
2019-04-23T06:06:54.151Z,13.80
2019-04-23T06:09:11.232Z,13.80
2019-04-23T06:11:47.340Z,13.90
2019-04-23T06:21:44.856Z,13.80
2019-04-23T06:24:16.322Z,13.90
2019-04-23T06:29:20.511Z,14.00
2019-04-23T06:31:47.533Z,14.10
2019-04-23T06:34:18.551Z,14.20
2019-04-23T06:36:46.593Z,14.30
2019-04-23T06:39:23.344Z,14.20
2019-04-23T06:41:49.932Z,14.20
2019-04-23T06:46:57.312Z,14.30
2019-04-23T06:49:28.430Z,14.30
2019-04-23T06:52:07.093Z,14.40
2019-04-23T06:54:27.896Z,14.60
2019-04-23T07:04:43.400Z,15.00
2019-04-23T07:07:24.084Z,15.10
2019-04-23T07:09:27.440Z,15.20
2019-04-23T07:12:05.792Z,15.40
2019-04-23T07:14:44.791Z,15.40
2019-04-23T07:17:03.920Z,15.40
2019-04-23T07:22:14.668Z,15.20
2019-04-23T07:24:41.977Z,15.40
2019-04-23T07:27:13.606Z,15.30
2019-04-23T07:29:41.754Z,15.40
2019-04-23T07:32:11.858Z,15.50
2019-04-23T07:34:49.809Z,15.70
2019-04-23T07:37:32.763Z,15.90
2019-04-23T07:40:11.403Z,16.00
2019-04-23T07:45:10.135Z,16.00
2019-04-23T07:48:06.555Z,16.20
2019-04-23T07:50:33.530Z,16.30
2019-04-23T07:53:05.640Z,16.30
2019-04-23T07:55:41.414Z,16.40
2019-04-23T07:58:10.575Z,16.40
2019-04-23T08:00:41.393Z,16.30
2019-04-23T08:03:10.959Z,16.30
2019-04-23T08:08:21.438Z,16.40
2019-04-23T08:10:46.705Z,16.40
2019-04-23T08:13:16.095Z,16.50
2019-04-23T08:15:43.432Z,16.50
2019-04-23T08:18:13.442Z,16.50
2019-04-23T08:23:38.247Z,16.80
2019-04-23T08:26:26.778Z,17.20
2019-04-23T08:29:03.601Z,17.30
2019-04-23T08:31:35.151Z,17.40
2019-04-23T08:34:09.169Z,17.70
2019-04-23T08:38:56.902Z,18.30
2019-04-23T08:41:33.791Z,18.50
2019-04-23T08:44:27.311Z,18.80
2019-04-23T08:47:12.731Z,19.10
2019-04-23T08:49:47.629Z,19.40
2019-04-23T08:54:48.300Z,19.60
2019-04-23T08:57:21.498Z,19.60
2019-04-23T08:59:45.473Z,19.60
2019-04-23T09:02:24.202Z,19.80
2019-04-23T09:04:50.238Z,20.10
2019-04-23T09:09:50.801Z,20.00
2019-04-23T09:12:24.221Z,20.10
2019-04-23T09:14:51.147Z,20.10
2019-04-23T09:20:13.287Z,20.20
2019-04-23T09:24:55.513Z,20.30
2019-04-23T09:27:26.305Z,20.40
2019-04-23T09:30:00.923Z,20.60
2019-04-23T09:40:54.439Z,20.90
2019-04-23T09:43:08.716Z,21.00
2019-04-23T09:45:46.441Z,20.90
2019-04-23T09:48:26.713Z,21.10
2019-04-23T09:50:50.928Z,20.90
2019-04-23T09:55:45.493Z,21.30
2019-04-23T10:00:56.140Z,21.30
2019-04-23T10:03:17.776Z,21.10
2019-04-23T10:05:37.285Z,21.30
2019-04-23T10:08:10.359Z,21.50
2019-04-23T10:10:32.249Z,21.60
2019-04-23T10:13:02.271Z,21.50
2019-04-23T10:15:38.175Z,21.60
2019-04-23T10:18:04.483Z,21.80
2019-04-23T10:20:34.488Z,22.00
2019-04-23T10:23:04.292Z,22.00
2019-04-23T10:25:34.133Z,22.00
2019-04-23T10:28:10.522Z,22.00
2019-04-23T10:30:38.421Z,22.10
2019-04-23T10:33:09.586Z,22.10
2019-04-23T10:35:49.240Z,22.00
2019-04-23T10:38:14.846Z,22.10
2019-04-23T10:40:46.775Z,22.10
2019-04-23T10:43:17.160Z,22.20
2019-04-23T10:46:27.993Z,22.30
2019-04-23T10:51:41.269Z,22.60
2019-04-23T10:54:26.476Z,22.80
2019-04-23T10:57:01.658Z,22.80
2019-04-23T10:59:38.883Z,22.80
2019-04-23T11:07:30.736Z,23.10
2019-04-23T11:10:52.493Z,23.10
2019-04-23T11:12:42.126Z,23.20
2019-04-23T11:15:16.573Z,23.30
2019-04-23T11:17:38.785Z,23.40
2019-04-23T11:20:07.450Z,23.20
2019-04-23T11:25:15.537Z,23.20
2019-04-23T11:27:40.592Z,23.20
2019-04-23T11:30:19.113Z,23.30
2019-04-23T11:35:22.731Z,23.10
2019-04-23T11:37:48.041Z,23.00
2019-04-23T11:40:19.952Z,23.00
2019-04-23T11:42:54.558Z,22.90
2019-04-23T11:45:24.861Z,23.00
2019-04-23T11:48:21.939Z,22.90
2019-04-23T11:50:39.569Z,22.80
2019-04-23T11:55:33.812Z,22.60
2019-04-23T11:57:59.296Z,22.70
2019-04-23T12:00:31.798Z,22.70
2019-04-23T12:03:07.651Z,22.80
2019-04-23T12:05:54.701Z,22.80
2019-04-23T12:08:36.492Z,22.90
2019-04-23T12:11:27.485Z,23.10
2019-04-23T12:13:38.108Z,23.30
2019-04-23T12:16:00.468Z,23.50
2019-04-23T12:21:06.686Z,23.70
2019-04-23T12:23:54.781Z,23.70
2019-04-23T12:26:15.677Z,23.70
2019-04-23T12:28:43.895Z,23.90
2019-04-23T12:31:17.763Z,24.00
2019-04-23T12:36:33.981Z,24.10
2019-04-23T12:38:56.805Z,24.30
2019-04-23T12:41:28.297Z,24.40
2019-04-23T12:44:03.175Z,24.40
2019-04-23T12:46:41.410Z,24.70
2019-04-23T12:49:26.923Z,24.90
2019-04-23T12:51:41.271Z,25.10
2019-04-23T12:54:17.519Z,24.90
2019-04-23T12:56:48.085Z,24.90
2019-04-23T12:59:07.004Z,24.80
2019-04-23T13:01:54.091Z,24.50
2019-04-23T13:04:09.268Z,24.30
2019-04-23T13:06:44.872Z,24.20
2019-04-23T13:11:50.117Z,24.40
2019-04-23T13:14:30.077Z,24.60
2019-04-23T13:17:02.684Z,24.70
2019-04-23T13:19:33.331Z,25.00
2019-04-23T13:24:39.215Z,25.60
2019-04-23T13:27:15.814Z,25.50
2019-04-23T13:32:04.461Z,25.80
2019-04-23T13:34:48.153Z,25.90
2019-04-23T13:37:21.633Z,25.70
2019-04-23T13:39:45.427Z,25.20
2019-04-23T13:42:22.786Z,24.90
2019-04-23T13:44:51.518Z,24.80
2019-04-23T13:47:27.999Z,24.40
2019-04-23T13:49:55.024Z,24.30
2019-04-23T13:52:51.669Z,24.50
2019-04-23T13:55:04.576Z,24.80
2019-04-23T14:00:01.847Z,24.50
2019-04-23T14:05:06.383Z,24.40
2019-04-23T14:07:43.990Z,24.50
2019-04-23T14:10:25.602Z,24.90
2019-04-23T14:12:41.609Z,25.40
2019-04-23T14:15:28.310Z,25.20
2019-04-23T14:17:59.889Z,24.90
2019-04-23T14:20:19.052Z,24.40
2019-04-23T14:23:00.325Z,24.40
2019-04-23T14:28:01.305Z,24.50
2019-04-23T14:32:54.344Z,24.40
2019-04-23T14:35:28.485Z,24.00
2019-04-23T14:38:11.308Z,24.00
2019-04-23T14:40:54.247Z,23.80
2019-04-23T14:48:09.914Z,23.00
2019-04-23T14:53:20.220Z,23.00
2019-04-23T14:58:27.278Z,23.20
2019-04-23T15:03:30.676Z,23.00
2019-04-23T15:06:04.919Z,22.90
2019-04-23T15:08:34.259Z,22.80
2019-04-23T15:13:28.073Z,22.80
2019-04-23T15:16:11.464Z,22.70
2019-04-23T15:18:55.113Z,22.70
2019-04-23T15:21:37.643Z,22.50
2019-04-23T15:24:00.266Z,22.40
2019-04-23T15:28:30.211Z,22.40
2019-04-23T15:34:03.758Z,22.50
2019-04-23T15:36:32.679Z,22.70
2019-04-23T15:41:32.130Z,22.80
2019-04-23T15:44:07.354Z,22.60
2019-04-23T15:46:32.961Z,22.40
2019-04-23T15:49:07.294Z,22.30
2019-04-23T15:51:38.979Z,22.20
2019-04-23T15:54:10.883Z,22.10
2019-04-23T16:01:34.126Z,21.90
2019-04-23T16:03:41.882Z,21.90
2019-04-23T16:06:12.759Z,21.80
2019-04-23T16:16:46.403Z,21.20
2019-04-23T16:19:20.650Z,21.20
2019-04-23T16:22:03.766Z,21.30
2019-04-23T16:26:59.662Z,21.10
2019-04-23T16:31:58.843Z,21.40
2019-04-23T16:37:02.569Z,21.50
2019-04-23T16:39:48.305Z,21.60
2019-04-23T16:42:06.040Z,21.50
2019-04-23T16:44:38.776Z,21.50
2019-04-23T16:47:18.684Z,21.40
2019-04-23T16:49:36.842Z,21.50
2019-04-23T16:52:07.882Z,21.50
2019-04-23T16:54:45.398Z,21.50
2019-04-23T16:57:24.452Z,21.50
2019-04-23T16:59:51.482Z,21.30
2019-04-23T17:02:14.907Z,21.10
2019-04-23T17:04:49.973Z,21.00
2019-04-23T17:07:06.678Z,20.90
2019-04-23T17:10:38.159Z,20.90
2019-04-23T17:12:16.284Z,20.90
2019-04-23T17:14:48.212Z,20.90
2019-04-23T17:17:14.794Z,20.90
2019-04-23T17:19:56.971Z,20.90
2019-04-23T17:22:17.695Z,20.80
2019-04-23T17:25:01.141Z,20.80
2019-04-23T17:29:57.939Z,20.60
2019-04-23T17:32:20.972Z,20.50
2019-04-23T17:35:09.614Z,20.40
2019-04-23T17:37:35.194Z,20.30
2019-04-23T17:42:45.459Z,20.20
2019-04-23T17:45:30.765Z,20.00
2019-04-23T17:47:57.635Z,20.00
2019-04-23T17:50:28.653Z,19.90
2019-04-23T17:52:56.287Z,19.80
2019-04-23T17:55:35.849Z,19.70
2019-04-23T17:57:58.902Z,19.70
2019-04-23T18:00:36.183Z,19.70
2019-04-23T18:03:06.012Z,19.70
2019-04-23T18:05:43.965Z,19.50
2019-04-23T18:08:14.775Z,19.50
2019-04-23T18:13:13.652Z,19.30
2019-04-23T18:15:53.354Z,19.20
2019-04-23T18:18:16.567Z,19.20
2019-04-23T18:21:35.713Z,19.20
2019-04-23T18:24:11.029Z,19.10
2019-04-23T18:26:45.961Z,19.10
2019-04-23T18:29:27.828Z,19.10
2019-04-23T18:34:43.654Z,18.90
2019-04-23T18:37:09.245Z,18.80
2019-04-23T18:39:37.317Z,18.80
2019-04-23T19:53:32.219Z,18.10
2019-04-23T19:55:58.799Z,18.00
2019-04-23T19:58:27.404Z,17.70
2019-04-23T20:06:03.141Z,17.10
2019-04-23T20:08:34.030Z,16.90
2019-04-23T20:10:57.823Z,16.80
2019-04-23T20:13:40.751Z,16.70
2019-04-23T20:18:42.982Z,16.50
2019-04-23T20:20:58.902Z,16.40
2019-04-23T20:23:58.634Z,16.30
2019-04-23T20:29:14.842Z,16.20
2019-04-23T20:34:24.554Z,16.10
2019-04-23T20:36:46.168Z,16.10
2019-04-23T20:44:47.513Z,15.80
2019-04-23T20:52:06.305Z,15.60
2019-04-23T20:54:42.129Z,15.60
2019-04-23T20:57:30.566Z,15.60
2019-04-23T20:59:56.779Z,15.50
2019-04-23T21:02:54.087Z,15.40
2019-04-23T21:05:10.048Z,15.40
2019-04-23T21:10:18.131Z,15.30
2019-04-23T21:15:22.974Z,15.30
2019-04-23T21:22:47.788Z,15.30
2019-04-23T21:25:14.447Z,15.20
2019-04-23T21:28:03.185Z,15.20
2019-04-23T21:30:59.424Z,15.20
2019-04-23T21:36:11.297Z,15.10
2019-04-23T21:41:32.941Z,15.00
2019-04-23T21:44:10.272Z,14.90
2019-04-23T21:46:33.950Z,14.90
2019-04-23T21:49:09.437Z,14.90
2019-04-23T21:51:42.211Z,14.90
2019-04-23T21:56:35.564Z,14.90
2019-04-23T22:01:39.766Z,14.80
2019-04-23T22:11:58.817Z,14.80
2019-04-23T22:14:09.945Z,14.90
2019-04-23T22:19:17.051Z,14.90
2019-04-23T22:21:47.519Z,14.90
2019-04-23T22:29:18.818Z,15.00
2019-04-23T22:34:22.269Z,15.10
2019-04-23T22:37:03.856Z,15.10
2019-04-23T22:39:26.901Z,15.20
2019-04-23T22:44:30.552Z,15.30
2019-04-23T22:47:04.000Z,15.30
2019-04-23T22:52:11.257Z,15.40
2019-04-23T22:54:31.873Z,15.50
2019-04-23T22:57:09.376Z,15.50
2019-04-23T22:59:48.717Z,15.50
2019-04-23T23:02:14.799Z,15.60
2019-04-23T23:07:28.885Z,15.60
2019-04-23T23:10:13.618Z,15.60
2019-04-23T23:12:36.546Z,15.70
2019-04-23T23:15:19.403Z,15.60
2019-04-23T23:17:42.981Z,15.60
2019-04-23T23:22:40.090Z,15.60
2019-04-23T23:25:16.821Z,15.60
2019-04-23T23:27:40.421Z,15.60
2019-04-23T23:32:40.857Z,15.50
2019-04-23T23:37:48.135Z,15.50
2019-04-23T23:40:20.371Z,15.50
2019-04-23T23:42:58.025Z,15.60
2019-04-23T23:45:21.605Z,15.50
2019-04-23T23:47:43.125Z,15.50
2019-04-23T23:50:25.566Z,15.50
2019-04-23T23:52:54.456Z,15.50
2019-04-23T23:55:19.872Z,15.60
2019-04-23T23:57:56.832Z,15.60
